Time;durP1;ratioP1;P1;durP2;ratioP2;P2;SDS_P1;SDS_P2;PMS_P1;PMS_P2;Temp;Humidity;BMP_temperature;BMP_pressure;BME280_temperature;BME280_humidity;BME280_pressure;Samples;Min_cycle;Max_cycle;Signal;HPM_P1;HPM_P2
2022/11/28 00:00:11;;;;;;;4.57;3.80;;;7.00;99.90;;;;;;5055504;28;20205;-58
2022/11/28 00:02:38;;;;;;;3.70;3.40;;;7.10;99.90;;;;;;5055361;28;20236;-58
2022/11/28 00:05:05;;;;;;;4.57;3.77;;;7.20;99.90;;;;;;5055717;28;20296;-58
2022/11/28 00:07:34;;;;;;;3.63;3.30;;;7.30;99.90;;;;;;5054878;28;20692;-58
2022/11/28 00:10:01;;;;;;;4.17;3.40;;;7.40;99.90;;;;;;5055694;28;20208;-58
2022/11/28 00:12:27;;;;;;;5.23;3.47;;;7.40;99.90;;;;;;5055577;28;20233;-58
2022/11/28 00:14:54;;;;;;;4.57;3.40;;;7.40;99.90;;;;;;5055721;28;20575;-58
2022/11/28 00:17:21;;;;;;;3.57;3.10;;;7.40;99.90;;;;;;5054682;28;20300;-58
2022/11/28 00:19:48;;;;;;;3.63;3.30;;;7.40;99.90;;;;;;5055474;28;20304;-58
2022/11/28 00:22:15;;;;;;;4.30;3.50;;;7.60;99.90;;;;;;5054975;28;20710;-59
2022/11/28 00:24:43;;;;;;;4.37;3.30;;;7.60;99.90;;;;;;5054883;28;20243;-58
2022/11/28 00:27:10;;;;;;;4.20;3.60;;;7.70;99.90;;;;;;5054933;28;20206;-59
2022/11/28 00:29:38;;;;;;;4.40;3.27;;;7.60;99.90;;;;;;5054373;28;20678;-58
2022/11/28 00:32:05;;;;;;;3.30;3.00;;;7.40;99.90;;;;;;5054832;28;20233;-58
2022/11/28 00:34:32;;;;;;;4.03;3.63;;;7.40;99.90;;;;;;5054855;28;20233;-58
2022/11/28 00:36:59;;;;;;;3.80;3.40;;;7.30;99.90;;;;;;5054275;28;20312;-60
2022/11/28 00:39:26;;;;;;;3.80;3.30;;;7.30;99.90;;;;;;5054301;28;20207;-58
2022/11/28 00:41:54;;;;;;;4.23;3.40;;;7.30;99.90;;;;;;5054340;28;20205;-58
2022/11/28 00:44:21;;;;;;;3.43;3.00;;;7.40;99.90;;;;;;5054730;28;20569;-58
2022/11/28 00:46:48;;;;;;;3.70;3.30;;;7.40;99.90;;;;;;5054740;28;20209;-58
2022/11/28 00:49:14;;;;;;;3.67;3.17;;;7.60;99.90;;;;;;5053831;28;20661;-58
2022/11/28 00:51:41;;;;;;;4.57;3.20;;;7.70;99.90;;;;;;5053912;28;20320;-58
2022/11/28 00:54:08;;;;;;;3.90;3.30;;;7.80;99.90;;;;;;5054402;28;20236;-58
2022/11/28 00:56:37;;;;;;;4.13;3.30;;;7.90;99.90;;;;;;5054430;28;20206;-58
2022/11/28 00:59:06;;;;;;;4.13;3.40;;;8.00;99.90;;;;;;5053056;28;20207;-59
2022/11/28 01:01:34;;;;;;;4.20;3.17;;;8.10;99.90;;;;;;5054500;28;20201;-58
2022/11/28 01:04:03;;;;;;;3.47;3.17;;;8.10;99.90;;;;;;5053869;28;20252;-59
2022/11/28 01:06:32;;;;;;;3.67;3.10;;;8.20;99.90;;;;;;5054333;28;20208;-58
2022/11/28 01:09:01;;;;;;;4.77;3.20;;;8.30;99.90;;;;;;5053887;28;20585;-58
2022/11/28 01:11:28;;;;;;;4.30;3.20;;;8.30;99.90;;;;;;5053761;28;20222;-58
2022/11/28 01:13:56;;;;;;;3.40;3.10;;;8.40;99.90;;;;;;5053872;28;20607;-58
2022/11/28 01:16:25;;;;;;;4.47;3.43;;;8.40;99.90;;;;;;5053817;28;20205;-58
2022/11/28 01:18:53;;;;;;;3.87;3.47;;;8.30;99.90;;;;;;5053242;28;20543;-58
2022/11/28 01:21:20;;;;;;;4.30;3.23;;;8.30;99.90;;;;;;5053568;28;20201;-58
2022/11/28 01:23:47;;;;;;;4.17;3.30;;;8.30;99.90;;;;;;5054395;28;20275;-58
2022/11/28 01:26:17;;;;;;;3.47;3.07;;;8.40;99.90;;;;;;5053738;28;20205;-59
2022/11/28 01:28:44;;;;;;;4.90;3.47;;;8.30;99.90;;;;;;5053352;28;20205;-58
2022/11/28 01:31:14;;;;;;;3.60;3.30;;;8.10;99.90;;;;;;5053581;28;20313;-58
2022/11/28 01:33:43;;;;;;;3.63;2.83;;;8.00;99.90;;;;;;5054039;28;20312;-58
2022/11/28 01:36:11;;;;;;;4.57;3.27;;;7.90;99.90;;;;;;5053553;28;20205;-58
2022/11/28 01:38:38;;;;;;;4.33;3.53;;;7.70;99.90;;;;;;5053042;28;20215;-58
2022/11/28 01:41:06;;;;;;;4.40;3.40;;;7.70;99.90;;;;;;5053408;28;20201;-58
2022/11/28 01:43:33;;;;;;;3.67;3.20;;;7.70;99.90;;;;;;5053284;28;20257;-58
2022/11/28 01:46:00;;;;;;;4.50;3.50;;;7.80;99.90;;;;;;5053316;28;20237;-59
2022/11/28 01:48:32;;;;;;;3.50;3.20;;;7.90;99.90;;;;;;5053079;28;20205;-58
2022/11/28 01:51:04;;;;;;;4.20;3.13;;;8.00;99.90;;;;;;5053233;28;20244;-58
2022/11/28 01:53:34;;;;;;;3.67;3.30;;;8.10;99.90;;;;;;5053144;28;20233;-59
2022/11/28 01:56:07;;;;;;;4.20;3.63;;;8.20;99.90;;;;;;5053461;28;20205;-58
2022/11/28 01:58:36;;;;;;;4.70;3.10;;;8.20;99.90;;;;;;5053034;28;20615;-58
2022/11/28 02:01:03;;;;;;;3.40;3.10;;;8.20;99.90;;;;;;5053211;28;20251;-58
2022/11/28 02:03:38;;;;;;;3.47;3.17;;;8.20;99.90;;;;;;5053131;28;20233;-59
2022/11/28 02:06:06;;;;;;;3.70;3.20;;;8.20;99.90;;;;;;5053242;28;20291;-58
2022/11/28 02:08:35;;;;;;;3.97;3.13;;;8.10;99.90;;;;;;5051950;28;20673;-59
2022/11/28 02:11:21;;;;;;;4.50;3.40;;;8.00;99.90;;;;;;5052913;28;20236;-59
2022/11/28 02:13:56;;;;;;;5.00;3.50;;;7.90;99.90;;;;;;5053308;28;20261;-58
2022/11/28 02:16:38;;;;;;;4.57;3.30;;;7.90;99.90;;;;;;5052135;28;20249;-59
2022/11/28 02:19:35;;;;;;;3.87;3.33;;;7.80;99.90;;;;;;5052361;28;20210;-59
2022/11/28 02:22:09;;;;;;;3.40;3.07;;;7.80;99.90;;;;;;5052742;28;20211;-58
2022/11/28 02:24:54;;;;;;;4.07;3.47;;;7.70;99.90;;;;;;5052949;28;20233;-58
2022/11/28 02:27:54;;;;;;;4.47;3.43;;;7.60;99.90;;;;;;5052915;28;20613;-58
2022/11/28 02:30:24;;;;;;;3.73;3.33;;;7.50;99.90;;;;;;5052729;28;20292;-59
2022/11/28 02:33:14;;;;;;;3.87;3.47;;;7.30;99.90;;;;;;5052761;28;20230;-58
2022/11/28 02:36:02;;;;;;;4.30;3.30;;;7.10;99.90;;;;;;5052537;28;20212;-58
2022/11/28 02:38:42;;;;;;;4.17;3.60;;;7.10;99.90;;;;;;5052257;28;20209;-59
2022/11/28 02:41:17;;;;;;;4.03;3.43;;;7.20;99.90;;;;;;5052953;28;20259;-58
2022/11/28 02:43:53;;;;;;;3.83;3.43;;;7.30;99.90;;;;;;5052781;28;20313;-58
2022/11/28 02:46:28;;;;;;;5.10;3.90;;;7.20;99.90;;;;;;5053135;28;20231;-58
2022/11/28 02:48:58;;;;;;;4.40;3.50;;;7.10;99.90;;;;;;5052090;28;20216;-58
2022/11/28 02:51:31;;;;;;;3.77;3.37;;;7.00;99.90;;;;;;5052407;28;20229;-58
2022/11/28 02:54:01;;;;;;;4.63;3.80;;;6.80;99.90;;;;;;5052815;28;20233;-58
2022/11/28 02:56:29;;;;;;;5.00;3.47;;;6.70;99.90;;;;;;5052458;28;20217;-58
2022/11/28 02:58:55;;;;;;;4.47;3.70;;;6.60;99.90;;;;;;5052050;28;20258;-58
2022/11/28 03:01:27;;;;;;;5.10;3.60;;;6.40;99.90;;;;;;5052805;28;20295;-58
2022/11/28 03:04:23;;;;;;;4.37;3.53;;;6.30;99.90;;;;;;5053035;28;20312;-58
2022/11/28 03:07:01;;;;;;;3.83;3.50;;;6.40;99.90;;;;;;5046505;28;20432;-58
2022/11/28 03:09:47;;;;;;;5.07;4.07;;;6.40;99.90;;;;;;5052413;28;20209;-58
2022/11/28 03:12:25;;;;;;;4.57;3.83;;;6.50;99.90;;;;;;5053009;28;20235;-58
2022/11/28 03:14:54;;;;;;;4.20;3.60;;;6.60;99.90;;;;;;5052856;28;20213;-58
2022/11/28 03:17:29;;;;;;;3.97;3.40;;;6.80;99.90;;;;;;5053330;28;20740;-58
2022/11/28 03:20:10;;;;;;;5.40;3.57;;;6.90;99.90;;;;;;5052360;28;20681;-58
2022/11/28 03:22:44;;;;;;;4.63;3.87;;;6.80;99.90;;;;;;5055088;28;20618;-58
2022/11/28 03:25:20;;;;;;;5.73;4.13;;;6.80;99.90;;;;;;5057247;28;20622;-58
2022/11/28 03:27:51;;;;;;;4.87;3.80;;;6.70;99.90;;;;;;5056239;28;20205;-58
2022/11/28 03:30:25;;;;;;;4.60;3.87;;;6.70;99.90;;;;;;5056987;28;20201;-58
2022/11/28 03:32:54;;;;;;;4.50;3.33;;;6.60;99.90;;;;;;5056347;28;20232;-58
2022/11/28 03:35:26;;;;;;;5.03;4.23;;;6.70;99.90;;;;;;5056350;28;20332;-59
2022/11/28 03:37:56;;;;;;;4.93;3.73;;;6.80;99.90;;;;;;5056154;28;20267;-58
2022/11/28 03:40:30;;;;;;;4.00;3.60;;;6.90;99.90;;;;;;5056239;28;20245;-58
2022/11/28 03:43:01;;;;;;;4.07;3.57;;;7.00;99.90;;;;;;5056428;28;20221;-58
2022/11/28 03:45:32;;;;;;;4.70;4.00;;;7.10;99.90;;;;;;5056569;28;20351;-58
2022/11/28 03:48:05;;;;;;;4.43;4.00;;;7.20;99.90;;;;;;5056206;28;20220;-58
2022/11/28 03:50:36;;;;;;;4.57;3.77;;;7.00;99.90;;;;;;5056260;28;20202;-58
2022/11/28 03:53:09;;;;;;;5.17;3.93;;;7.00;99.90;;;;;;5055768;28;20598;-59
2022/11/28 03:55:41;;;;;;;4.40;3.87;;;7.00;99.90;;;;;;5055937;28;20598;-59
2022/11/28 03:58:12;;;;;;;4.37;3.73;;;6.90;99.90;;;;;;5055305;28;20216;-58
2022/11/28 04:00:48;;;;;;;6.90;3.80;;;7.00;99.90;;;;;;5055621;28;20670;-58
2022/11/28 04:03:26;;;;;;;4.23;3.70;;;7.00;99.90;;;;;;5055417;28;20317;-58
2022/11/28 04:05:59;;;;;;;4.77;3.93;;;7.00;99.90;;;;;;5055306;28;20224;-58
2022/11/28 04:08:29;;;;;;;4.57;3.50;;;7.10;99.90;;;;;;5055183;28;20267;-58
2022/11/28 04:11:02;;;;;;;3.90;3.20;;;7.30;99.90;;;;;;5055286;28;20206;-58
2022/11/28 04:13:35;;;;;;;5.13;3.33;;;7.30;99.90;;;;;;5055276;28;20230;-58
2022/11/28 04:16:08;;;;;;;7.00;3.80;;;7.30;99.90;;;;;;5055422;28;20217;-58
2022/11/28 04:18:43;;;;;;;5.13;3.83;;;7.30;99.90;;;;;;5054589;28;20205;-58
2022/11/28 04:21:16;;;;;;;5.10;3.90;;;7.20;99.90;;;;;;5054902;28;20213;-57
2022/11/28 04:23:45;;;;;;;4.77;3.73;;;7.20;99.90;;;;;;5055027;28;20333;-58
2022/11/28 04:26:17;;;;;;;4.13;3.57;;;7.20;99.90;;;;;;5054722;28;20206;-58
2022/11/28 04:28:46;;;;;;;4.07;3.67;;;7.30;99.90;;;;;;5054600;28;20255;-59
2022/11/28 04:31:15;;;;;;;3.73;3.30;;;7.10;99.90;;;;;;5055012;28;20214;-59
2022/11/28 04:33:47;;;;;;;3.47;3.10;;;7.00;99.90;;;;;;5053591;28;20225;-58
2022/11/28 04:36:18;;;;;;;6.77;3.50;;;7.00;99.90;;;;;;5054670;28;20205;-58
2022/11/28 04:38:53;;;;;;;4.33;3.60;;;6.80;99.90;;;;;;5054240;28;20240;-58
2022/11/28 04:41:24;;;;;;;4.10;3.70;;;6.80;99.90;;;;;;5055271;28;20687;-58
2022/11/28 04:43:59;;;;;;;7.13;5.23;;;6.90;99.90;;;;;;5055290;28;20236;-58
2022/11/28 04:46:32;;;;;;;11.40;7.87;;;7.00;99.90;;;;;;5055075;28;20209;-58
2022/11/28 04:48:59;;;;;;;5.53;4.23;;;7.20;99.90;;;;;;5054245;28;20292;-58
2022/11/28 04:51:33;;;;;;;5.30;3.60;;;7.30;99.90;;;;;;5054123;28;20323;-58
2022/11/28 04:54:05;;;;;;;4.77;3.57;;;7.20;99.90;;;;;;5054198;28;20229;-58
2022/11/28 04:56:42;;;;;;;5.00;3.57;;;7.20;99.90;;;;;;5054108;28;20212;-58
2022/11/28 04:59:09;;;;;;;4.47;3.80;;;7.20;99.90;;;;;;5053699;28;20205;-58
2022/11/28 05:01:38;;;;;;;5.43;3.80;;;7.30;99.90;;;;;;5054075;28;20700;-58
2022/11/28 05:04:05;;;;;;;4.63;3.90;;;7.20;99.90;;;;;;5054286;28;20248;-58
2022/11/28 05:06:36;;;;;;;5.63;3.90;;;7.10;99.90;;;;;;5054153;28;20202;-58
2022/11/28 05:09:04;;;;;;;5.00;4.17;;;7.00;99.90;;;;;;5053916;28;20228;-58
2022/11/28 05:11:31;;;;;;;4.57;3.77;;;6.90;99.90;;;;;;5053857;28;20284;-58
2022/11/28 05:13:58;;;;;;;5.57;4.20;;;6.80;99.90;;;;;;5053949;28;20636;-58
2022/11/28 05:16:25;;;;;;;5.70;3.77;;;6.70;99.90;;;;;;5054089;28;20224;-58
2022/11/28 05:18:52;;;;;;;4.17;3.57;;;6.50;99.90;;;;;;5053765;28;20206;-58
2022/11/28 05:21:19;;;;;;;5.03;4.03;;;6.40;99.90;;;;;;5054044;28;20206;-57
2022/11/28 05:23:47;;;;;;;5.27;4.03;;;6.30;99.90;;;;;;5054117;28;20771;-58
2022/11/28 05:26:17;;;;;;;4.77;3.80;;;6.20;99.90;;;;;;5054128;28;20206;-58
2022/11/28 05:28:45;;;;;;;5.03;3.77;;;6.20;99.90;;;;;;5053550;28;20259;-58
2022/11/28 05:31:13;;;;;;;4.93;4.03;;;6.30;99.90;;;;;;5054160;28;20616;-58
2022/11/28 05:33:40;;;;;;;5.00;3.73;;;6.50;99.90;;;;;;5054162;28;20234;-58
2022/11/28 05:36:10;;;;;;;4.77;3.90;;;6.60;99.90;;;;;;5054133;28;20244;-59
2022/11/28 05:38:37;;;;;;;4.37;3.70;;;6.60;99.90;;;;;;5053375;28;20206;-58
2022/11/28 05:41:06;;;;;;;5.87;4.30;;;6.80;99.90;;;;;;5053436;28;20581;-59
2022/11/28 05:43:33;;;;;;;6.23;3.90;;;6.80;99.90;;;;;;5053930;28;20666;-58
2022/11/28 05:45:59;;;;;;;5.43;4.13;;;6.90;99.90;;;;;;5053210;28;20300;-59
2022/11/28 05:48:26;;;;;;;6.03;4.17;;;7.00;99.90;;;;;;5053663;28;20209;-59
2022/11/28 05:50:53;;;;;;;5.37;3.87;;;7.00;99.90;;;;;;5053479;28;20220;-58
2022/11/28 05:53:20;;;;;;;5.17;3.97;;;7.10;99.90;;;;;;5053333;28;20237;-58
2022/11/28 05:55:47;;;;;;;4.73;3.93;;;7.20;99.90;;;;;;5053124;28;20252;-59
2022/11/28 05:58:16;;;;;;;5.10;3.93;;;7.20;99.90;;;;;;5053034;28;20201;-60
2022/11/28 06:00:43;;;;;;;5.17;4.00;;;7.20;99.90;;;;;;5053396;28;20309;-60
2022/11/28 06:03:10;;;;;;;5.90;4.00;;;7.20;99.90;;;;;;5053422;28;20232;-58
2022/11/28 06:05:39;;;;;;;4.90;4.30;;;7.20;99.90;;;;;;5053670;28;20300;-58
2022/11/28 06:08:06;;;;;;;6.07;4.60;;;7.30;99.90;;;;;;5052756;28;20212;-58
2022/11/28 06:10:33;;;;;;;5.37;4.27;;;7.30;99.90;;;;;;5053333;28;20292;-59
2022/11/28 06:13:01;;;;;;;5.60;3.90;;;7.40;99.90;;;;;;5052871;28;20702;-58
2022/11/28 06:15:30;;;;;;;5.90;4.20;;;7.50;99.90;;;;;;5053333;28;20217;-58
2022/11/28 06:17:57;;;;;;;5.20;4.23;;;7.60;99.90;;;;;;5052797;28;20216;-58
2022/11/28 06:20:24;;;;;;;7.13;3.57;;;7.60;99.90;;;;;;5053266;28;20721;-58
2022/11/28 06:22:50;;;;;;;5.77;3.67;;;7.60;99.90;;;;;;5052998;28;20240;-59
2022/11/28 06:25:18;;;;;;;5.63;4.57;;;7.70;99.90;;;;;;5053495;28;20206;-60
2022/11/28 06:27:44;;;;;;;8.97;5.30;;;7.90;99.90;;;;;;5053102;28;20228;-60
2022/11/28 06:30:12;;;;;;;6.50;4.63;;;8.00;99.90;;;;;;5053230;28;20214;-60
2022/11/28 06:32:40;;;;;;;9.10;4.17;;;8.00;99.90;;;;;;5053650;28;20233;-59
2022/11/28 06:35:07;;;;;;;7.57;4.67;;;7.90;99.90;;;;;;5053623;28;20287;-60
2022/11/28 06:37:34;;;;;;;4.77;4.00;;;7.90;99.90;;;;;;5053909;28;20309;-60
2022/11/28 06:40:01;;;;;;;5.23;3.63;;;8.00;99.90;;;;;;5053488;28;20206;-59
2022/11/28 06:42:28;;;;;;;5.10;4.13;;;7.90;99.90;;;;;;5054229;28;20218;-60
2022/11/28 06:44:54;;;;;;;10.77;4.23;;;7.90;99.90;;;;;;5053964;28;20296;-60
2022/11/28 06:47:21;;;;;;;6.63;4.07;;;8.00;99.90;;;;;;5053992;28;20206;-60
2022/11/28 06:49:50;;;;;;;6.53;4.40;;;8.00;99.90;;;;;;5053387;28;20244;-60
2022/11/28 06:52:16;;;;;;;7.37;4.83;;;8.00;99.90;;;;;;5054363;28;20256;-60
2022/11/28 06:54:43;;;;;;;6.70;4.50;;;8.10;99.90;;;;;;5053249;28;20270;-60
2022/11/28 06:57:11;;;;;;;6.10;4.57;;;8.10;99.90;;;;;;5055132;28;20220;-60
2022/11/28 06:59:38;;;;;;;7.87;4.77;;;7.90;99.90;;;;;;5057658;28;20210;-60
2022/11/28 07:02:05;;;;;;;6.40;4.70;;;7.70;99.90;;;;;;5057165;28;20260;-60
2022/11/28 07:04:32;;;;;;;9.50;5.37;;;7.60;99.90;;;;;;5057643;28;20209;-60
2022/11/28 07:07:00;;;;;;;7.60;4.67;;;7.70;99.90;;;;;;5056689;28;20294;-60
2022/11/28 07:09:27;;;;;;;7.20;4.80;;;7.70;99.90;;;;;;5056385;28;20209;-60
2022/11/28 07:11:54;;;;;;;6.27;4.10;;;7.80;99.90;;;;;;5056534;28;20209;-60
2022/11/28 07:14:21;;;;;;;5.50;4.33;;;7.80;99.90;;;;;;5056903;28;20216;-60
2022/11/28 07:16:48;;;;;;;4.73;4.00;;;7.80;99.90;;;;;;5056790;28;20301;-60
2022/11/28 07:19:15;;;;;;;5.73;3.77;;;7.70;99.90;;;;;;5055690;28;20615;-60
2022/11/28 07:21:42;;;;;;;6.50;4.00;;;7.60;99.90;;;;;;5055806;28;20557;-60
2022/11/28 07:24:10;;;;;;;5.93;4.43;;;7.60;99.90;;;;;;5056385;28;20232;-59
2022/11/28 07:26:37;;;;;;;6.23;4.20;;;7.40;99.90;;;;;;5056506;28;20697;-59
2022/11/28 07:29:06;;;;;;;5.80;3.77;;;7.30;99.90;;;;;;5055089;28;20588;-59
2022/11/28 07:31:32;;;;;;;5.30;4.00;;;7.20;99.90;;;;;;5055524;28;20209;-59
2022/11/28 07:34:02;;;;;;;5.17;4.00;;;6.90;99.90;;;;;;5055372;28;20229;-59
2022/11/28 07:36:29;;;;;;;5.67;4.43;;;6.80;99.90;;;;;;5055313;28;20210;-58
2022/11/28 07:38:57;;;;;;;5.30;4.00;;;6.90;99.90;;;;;;5054671;28;20214;-59
2022/11/28 07:41:26;;;;;;;6.53;4.47;;;7.10;99.90;;;;;;5049195;28;20202;-61
2022/11/28 07:43:55;;;;;;;6.43;4.03;;;7.30;99.90;;;;;;5053366;28;20219;-61
2022/11/28 07:46:22;;;;;;;6.30;4.30;;;7.50;99.90;;;;;;5054389;28;20324;-65
2022/11/28 07:48:49;;;;;;;7.60;4.87;;;7.60;99.90;;;;;;5052933;28;20206;-59
2022/11/28 07:51:20;;;;;;;7.30;5.00;;;7.70;99.90;;;;;;5053734;28;20216;-60
2022/11/28 07:53:47;;;;;;;6.73;4.70;;;7.80;99.90;;;;;;5053903;28;20229;-61
2022/11/28 07:56:19;;;;;;;6.47;4.20;;;7.80;99.90;;;;;;5053689;28;20210;-61
2022/11/28 07:58:47;;;;;;;6.07;4.73;;;7.60;99.90;;;;;;5053039;28;20561;-60
2022/11/28 08:01:17;;;;;;;6.67;4.37;;;7.60;99.90;;;;;;5054501;28;20206;-60
2022/11/28 08:03:44;;;;;;;7.10;4.60;;;7.70;99.90;;;;;;5054295;28;20740;-61
2022/11/28 08:06:12;;;;;;;5.63;4.53;;;7.70;99.90;;;;;;5053824;28;20662;-60
2022/11/28 08:08:39;;;;;;;5.47;4.70;;;7.80;99.90;;;;;;5052319;28;20217;-60
2022/11/28 08:11:08;;;;;;;8.10;4.50;;;7.90;99.90;;;;;;5060367;28;20211;-60
2022/11/28 08:13:36;;;;;;;7.03;4.50;;;7.80;99.90;;;;;;5055172;28;20307;-60
2022/11/28 08:16:07;;;;;;;6.70;4.87;;;7.90;99.90;;;;;;5053070;28;20210;-61
2022/11/28 08:18:34;;;;;;;8.47;5.17;;;7.90;99.90;;;;;;5052506;28;20209;-59
2022/11/28 08:21:05;;;;;;;5.57;4.20;;;8.00;99.90;;;;;;5053836;28;20209;-62
2022/11/28 08:23:33;;;;;;;6.03;4.27;;;8.00;99.90;;;;;;5053441;28;20229;-58
2022/11/28 08:26:00;;;;;;;5.87;4.37;;;7.80;99.90;;;;;;5052894;28;20205;-58
2022/11/28 08:28:27;;;;;;;6.07;4.50;;;7.90;99.90;;;;;;5052921;28;20630;-58
2022/11/28 08:30:54;;;;;;;4.70;3.93;;;8.00;99.90;;;;;;5052920;28;20555;-58
2022/11/28 08:33:22;;;;;;;6.20;4.10;;;8.10;99.90;;;;;;5053424;28;20236;-58
2022/11/28 08:35:49;;;;;;;5.20;4.30;;;8.30;99.90;;;;;;5053693;28;20217;-58
2022/11/28 08:38:16;;;;;;;5.60;4.17;;;8.40;99.90;;;;;;5052211;28;20299;-58
2022/11/28 08:40:43;;;;;;;6.87;4.90;;;8.50;99.90;;;;;;5053434;28;20209;-58
2022/11/28 08:43:10;;;;;;;7.07;4.90;;;8.60;99.90;;;;;;5053594;28;20221;-59
2022/11/28 08:45:37;;;;;;;6.60;5.17;;;8.60;99.90;;;;;;5053087;28;20209;-59
2022/11/28 08:48:05;;;;;;;6.67;5.03;;;8.60;99.90;;;;;;5053028;28;20210;-59
2022/11/28 08:50:33;;;;;;;5.87;5.00;;;8.60;99.90;;;;;;5053216;28;20290;-58
2022/11/28 08:53:00;;;;;;;5.90;4.87;;;8.70;99.90;;;;;;5052166;28;20233;-59
2022/11/28 08:55:26;;;;;;;6.90;5.10;;;8.80;99.90;;;;;;5053201;28;20213;-59
2022/11/28 08:57:53;;;;;;;5.83;4.47;;;8.80;99.90;;;;;;5052579;28;20216;-58
2022/11/28 09:00:21;;;;;;;7.60;5.73;;;8.80;99.90;;;;;;5052325;28;20205;-59
2022/11/28 09:02:47;;;;;;;8.07;5.57;;;8.90;99.90;;;;;;5052192;28;20234;-59
2022/11/28 09:05:14;;;;;;;6.83;5.27;;;8.90;99.90;;;;;;5053173;28;20202;-59
2022/11/28 09:07:42;;;;;;;8.37;5.33;;;9.00;99.90;;;;;;5051893;28;20716;-59
2022/11/28 09:10:10;;;;;;;7.07;5.00;;;9.00;99.90;;;;;;5051522;28;20202;-58
2022/11/28 09:12:36;;;;;;;7.57;4.83;;;9.00;99.90;;;;;;5052222;28;20612;-59
2022/11/28 09:15:04;;;;;;;6.50;4.80;;;9.00;99.90;;;;;;5052024;28;20213;-59
2022/11/28 09:17:30;;;;;;;6.57;4.77;;;8.70;99.90;;;;;;5051926;28;20304;-59
2022/11/28 09:19:57;;;;;;;7.23;4.63;;;8.60;99.90;;;;;;5050693;28;20202;-58
2022/11/28 09:22:24;;;;;;;5.80;4.73;;;8.70;99.90;;;;;;5051838;28;20793;-59
2022/11/28 09:24:52;;;;;;;7.13;4.23;;;8.90;99.90;;;;;;5052466;28;20214;-59
2022/11/28 09:27:19;;;;;;;7.77;4.60;;;9.10;99.90;;;;;;5051527;28;20209;-58
2022/11/28 09:29:46;;;;;;;5.90;4.00;;;9.00;99.90;;;;;;5051696;28;20212;-59
2022/11/28 09:32:12;;;;;;;6.70;4.80;;;9.00;99.90;;;;;;5052766;28;20225;-59
2022/11/28 09:34:39;;;;;;;4.57;3.90;;;9.00;99.90;;;;;;5051600;28;20222;-59
2022/11/28 09:37:06;;;;;;;5.57;4.67;;;8.80;99.90;;;;;;5051449;28;20228;-59
2022/11/28 09:39:33;;;;;;;6.57;4.40;;;8.80;99.90;;;;;;5051134;28;20201;-58
2022/11/28 09:42:11;;;;;;;6.23;4.63;;;8.60;99.90;;;;;;5051937;28;20292;-58
2022/11/28 09:44:42;;;;;;;5.63;4.50;;;8.60;99.90;;;;;;5051838;28;20702;-58
2022/11/28 09:47:18;;;;;;;6.10;4.40;;;8.70;99.90;;;;;;5050758;28;20584;-59
2022/11/28 09:49:50;;;;;;;7.80;5.03;;;8.80;99.90;;;;;;5051411;28;20213;-57
2022/11/28 09:52:26;;;;;;;8.53;5.17;;;8.90;99.90;;;;;;5051501;28;20233;-59
2022/11/28 09:55:05;;;;;;;5.50;4.33;;;9.10;99.90;;;;;;5051633;28;20224;-61
2022/11/28 09:57:38;;;;;;;7.43;4.70;;;9.20;99.90;;;;;;5051043;28;20213;-61
2022/11/28 10:00:15;;;;;;;6.03;4.87;;;9.10;99.90;;;;;;5050522;28;20747;-62
2022/11/28 10:02:57;;;;;;;7.70;4.90;;;9.10;99.90;;;;;;5051603;28;20229;-61
2022/11/28 10:05:29;;;;;;;8.33;5.70;;;9.20;99.90;;;;;;5051588;28;20206;-61
2022/11/28 10:08:10;;;;;;;7.70;5.87;;;9.40;99.90;;;;;;5051047;28;20201;-59
2022/11/28 10:10:49;;;;;;;6.53;4.80;;;9.60;99.90;;;;;;5051109;28;20308;-59
2022/11/28 10:13:20;;;;;;;6.47;3.97;;;9.80;99.90;;;;;;5051475;28;20325;-58
2022/11/28 10:15:59;;;;;;;6.03;4.00;;;9.80;99.90;;;;;;5051202;28;20669;-59
2022/11/28 10:18:39;;;;;;;5.47;4.33;;;9.80;99.90;;;;;;5050806;28;20561;-58
2022/11/28 10:21:18;;;;;;;6.27;4.23;;;9.80;99.90;;;;;;5051495;28;20216;-57
2022/11/28 10:23:46;;;;;;;4.87;4.10;;;9.80;99.90;;;;;;5051631;28;20284;-58
2022/11/28 10:26:18;;;;;;;8.87;4.60;;;9.60;99.90;;;;;;5052051;28;20206;-58
2022/11/28 10:28:51;;;;;;;5.60;4.87;;;9.50;99.90;;;;;;5050295;28;20300;-59
2022/11/28 10:31:27;;;;;;;5.77;4.33;;;9.60;99.90;;;;;;5051975;28;20217;-58
2022/11/28 10:34:00;;;;;;;7.27;5.00;;;9.60;99.90;;;;;;5051630;28;20221;-58
2022/11/28 10:36:30;;;;;;;9.00;4.80;;;9.80;99.90;;;;;;5051141;28;20221;-59
2022/11/28 10:38:59;;;;;;;6.53;5.00;;;10.10;99.90;;;;;;5050438;28;20584;-59
2022/11/28 10:41:32;;;;;;;7.23;4.70;;;10.30;99.90;;;;;;5051190;28;20216;-59
2022/11/28 10:44:06;;;;;;;6.57;4.37;;;10.40;99.90;;;;;;5051071;28;20642;-59
2022/11/28 10:46:45;;;;;;;5.40;4.27;;;10.60;99.90;;;;;;5050565;28;20296;-59
2022/11/28 10:49:34;;;;;;;5.40;4.20;;;10.60;99.90;;;;;;5050368;28;20581;-59
2022/11/28 10:52:11;;;;;;;6.67;4.50;;;10.50;99.90;;;;;;5050996;28;20205;-59
2022/11/28 10:55:04;;;;;;;7.17;4.33;;;10.60;99.90;;;;;;5051176;28;20256;-58
2022/11/28 10:57:39;;;;;;;6.57;4.77;;;10.60;99.90;;;;;;5050917;28;20631;-59
2022/11/28 11:00:11;;;;;;;4.90;4.13;;;10.60;99.90;;;;;;5050506;28;20403;-58
2022/11/28 11:02:42;;;;;;;8.37;4.67;;;10.60;99.90;;;;;;5051474;28;20225;-59
2022/11/28 11:05:14;;;;;;;5.33;3.70;;;10.50;99.90;;;;;;5051233;28;20204;-59
2022/11/28 11:07:46;;;;;;;6.30;3.90;;;10.30;99.90;;;;;;5051101;28;20213;-58
2022/11/28 11:10:16;;;;;;;6.70;4.27;;;10.10;99.90;;;;;;5050224;28;20669;-59
2022/11/28 11:12:44;;;;;;;4.50;3.90;;;9.90;99.90;;;;;;5051518;28;20239;-59
2022/11/28 11:15:22;;;;;;;7.00;4.13;;;9.70;99.90;;;;;;5051324;28;20229;-59
2022/11/28 11:17:50;;;;;;;5.70;3.80;;;9.80;99.90;;;;;;5050759;28;20205;-59
2022/11/28 11:20:33;;;;;;;4.80;3.87;;;9.70;99.90;;;;;;5050619;28;20236;-59
2022/11/28 11:23:02;;;;;;;5.83;4.07;;;9.70;99.90;;;;;;5050966;28;20395;-59
2022/11/28 11:25:31;;;;;;;6.57;4.03;;;9.70;99.90;;;;;;5051146;28;20662;-59
2022/11/28 11:28:01;;;;;;;4.93;4.10;;;9.80;99.90;;;;;;5050456;28;20240;-59
2022/11/28 11:30:31;;;;;;;5.73;4.30;;;9.90;99.90;;;;;;5050234;28;20217;-59
2022/11/28 11:33:00;;;;;;;5.80;4.30;;;9.90;99.90;;;;;;5050511;28;20236;-59
2022/11/28 11:35:31;;;;;;;6.33;4.17;;;9.90;99.90;;;;;;5050588;28;20543;-58
2022/11/28 11:38:18;;;;;;;5.87;4.60;;;9.80;99.90;;;;;;5050383;28;20205;-59
2022/11/28 11:40:45;;;;;;;4.90;4.00;;;9.90;99.90;;;;;;5049982;28;20273;-59
2022/11/28 11:43:25;;;;;;;5.73;4.37;;;9.90;99.90;;;;;;5051893;28;20321;-59
2022/11/28 11:46:07;;;;;;;6.13;4.53;;;10.00;99.90;;;;;;5054253;28;20216;-59
2022/11/28 11:48:37;;;;;;;7.83;4.47;;;10.10;99.90;;;;;;5053372;28;20213;-59
2022/11/28 11:51:05;;;;;;;6.87;4.50;;;10.10;99.90;;;;;;5054492;28;20569;-59
2022/11/28 11:53:31;;;;;;;5.47;4.50;;;10.10;99.90;;;;;;5054132;28;20226;-59
2022/11/28 11:56:02;;;;;;;5.07;4.23;;;10.00;99.90;;;;;;5054239;28;20308;-59
2022/11/28 11:58:36;;;;;;;6.37;4.47;;;10.30;99.90;;;;;;5053323;28;20216;-59
2022/11/28 12:01:06;;;;;;;6.50;4.40;;;10.50;99.90;;;;;;5054398;28;20300;-59
2022/11/28 12:03:39;;;;;;;5.60;4.33;;;10.60;99.90;;;;;;5054568;28;20320;-59
2022/11/28 12:06:13;;;;;;;5.13;4.30;;;10.60;99.90;;;;;;5054099;28;20297;-58
2022/11/28 12:08:44;;;;;;;5.63;4.60;;;10.60;99.90;;;;;;5053053;28;20206;-59
2022/11/28 12:11:15;;;;;;;6.27;4.40;;;10.80;99.90;;;;;;5054115;28;20202;-59
2022/11/28 12:13:42;;;;;;;6.47;4.90;;;11.00;99.90;;;;;;5054062;28;20316;-59
2022/11/28 12:16:46;;;;;;;5.87;4.23;;;11.20;99.90;;;;;;5053741;28;20209;-59
2022/11/28 12:19:23;;;;;;;6.43;4.33;;;11.20;99.90;;;;;;5005298;28;20669;-58
2022/11/28 12:22:02;;;;;;;7.03;4.90;;;11.30;99.90;;;;;;5053768;28;20284;-59
2022/11/28 12:24:37;;;;;;;6.27;4.63;;;11.20;99.90;;;;;;5053918;28;20206;-59
2022/11/28 12:27:10;;;;;;;7.10;5.00;;;11.00;99.90;;;;;;5053252;28;20296;-59
2022/11/28 12:29:51;;;;;;;6.27;4.53;;;11.00;99.90;;;;;;5052558;28;20264;-59
2022/11/28 12:32:32;;;;;;;8.13;5.03;;;11.00;99.90;;;;;;5053127;28;20261;-59
2022/11/28 12:35:13;;;;;;;5.57;4.73;;;11.20;99.90;;;;;;5053285;28;20312;-60
2022/11/28 12:37:52;;;;;;;6.73;4.40;;;11.50;99.90;;;;;;5053230;28;20300;-61
2022/11/28 12:40:31;;;;;;;7.10;4.77;;;11.70;99.90;;;;;;5052984;28;20215;-60
2022/11/28 12:43:10;;;;;;;5.90;3.83;;;11.90;99.90;;;;;;5053192;28;20232;-61
2022/11/28 12:45:44;;;;;;;6.57;4.80;;;12.20;99.90;;;;;;5053764;28;20205;-61
2022/11/28 12:48:32;;;;;;;7.50;5.17;;;12.30;99.90;;;;;;5052804;28;20216;-61
2022/11/28 12:51:06;;;;;;;6.13;4.70;;;12.50;99.90;;;;;;5053615;28;20201;-63
2022/11/28 12:53:46;;;;;;;7.43;4.63;;;12.60;99.90;;;;;;5053038;28;20232;-61
2022/11/28 12:56:28;;;;;;;6.00;4.57;;;12.70;99.90;;;;;;5051861;28;20296;-62
2022/11/28 12:59:00;;;;;;;7.23;4.70;;;12.70;99.90;;;;;;5051963;28;20296;-61
2022/11/28 13:01:41;;;;;;;6.37;4.67;;;12.60;99.90;;;;;;5052750;28;20201;-61
2022/11/28 13:04:26;;;;;;;7.60;4.77;;;12.50;99.90;;;;;;5052729;28;20534;-61
2022/11/28 13:07:01;;;;;;;7.03;5.10;;;12.20;99.90;;;;;;5051932;28;20206;-61
2022/11/28 13:09:32;;;;;;;6.63;4.83;;;12.00;99.90;;;;;;5051670;28;20299;-61
2022/11/28 13:12:14;;;;;;;7.00;5.00;;;11.70;99.90;;;;;;5052598;28;20565;-61
2022/11/28 13:14:51;;;;;;;6.23;4.67;;;11.60;99.90;;;;;;5052545;28;20232;-61